createdAt,value
2018-09-17T00:02:52.305Z,60.40
2018-09-17T00:06:25.522Z,60.40
2018-09-17T00:09:58.748Z,60.30
2018-09-17T00:13:31.996Z,60.40
2018-09-17T00:17:05.228Z,60.40
2018-09-17T00:20:38.443Z,60.50
2018-09-17T00:24:11.683Z,60.60
2018-09-17T00:27:44.921Z,60.80
2018-09-17T00:31:18.144Z,60.80
2018-09-17T00:34:51.371Z,60.90
2018-09-17T00:38:24.611Z,60.90
2018-09-17T00:41:57.836Z,61.00
2018-09-17T00:45:31.069Z,61.00
2018-09-17T00:49:04.309Z,61.00
2018-09-17T00:52:37.539Z,61.30
2018-09-17T00:56:10.770Z,61.30
2018-09-17T00:59:44.008Z,61.40
2018-09-17T01:03:17.244Z,61.40
2018-09-17T01:06:50.484Z,61.50
2018-09-17T01:10:23.712Z,61.60
2018-09-17T01:13:56.957Z,61.80
2018-09-17T01:17:30.187Z,61.90
2018-09-17T01:21:03.432Z,61.90
2018-09-17T01:24:36.650Z,62.10
2018-09-17T01:28:09.908Z,62.10
2018-09-17T01:31:43.200Z,62.40
2018-09-17T01:35:16.462Z,62.30
2018-09-17T01:38:49.685Z,62.50
2018-09-17T01:42:22.922Z,62.50
2018-09-17T01:45:56.156Z,62.50
2018-09-17T01:49:29.375Z,62.60
2018-09-17T01:53:02.621Z,62.60
2018-09-17T01:56:35.841Z,62.40
2018-09-17T02:00:09.076Z,62.30
2018-09-17T02:03:42.312Z,62.20
2018-09-17T02:07:15.536Z,63.50
2018-09-17T02:10:48.767Z,63.30
2018-09-17T02:14:22.005Z,63.10
2018-09-17T02:17:55.244Z,63.20
2018-09-17T02:21:28.468Z,63.30
2018-09-17T02:25:01.714Z,63.70
2018-09-17T02:28:34.932Z,64.00
2018-09-17T02:32:08.160Z,64.20
2018-09-17T02:35:41.389Z,64.30
2018-09-17T02:39:14.621Z,64.50
2018-09-17T02:42:49.635Z,64.40
2018-09-17T02:46:22.857Z,64.10
2018-09-17T02:49:56.088Z,64.10
2018-09-17T02:53:29.380Z,63.90
2018-09-17T02:57:02.554Z,63.50
2018-09-17T03:00:35.793Z,63.20
2018-09-17T03:04:09.029Z,62.90
2018-09-17T03:07:42.296Z,63.00
2018-09-17T03:11:15.532Z,63.70
2018-09-17T03:14:48.806Z,64.10
2018-09-17T03:18:35.741Z,63.70
2018-09-17T03:22:09.273Z,63.30
2018-09-17T03:25:42.532Z,63.20
2018-09-17T03:29:15.757Z,63.00
2018-09-17T03:32:49.016Z,63.30
2018-09-17T03:36:22.257Z,63.70
2018-09-17T03:39:55.574Z,64.00
2018-09-17T03:43:28.895Z,64.20
2018-09-17T03:47:02.123Z,64.00
2018-09-17T03:50:35.349Z,64.10
2018-09-17T03:54:08.572Z,64.20
2018-09-17T03:57:41.820Z,64.10
2018-09-17T04:01:15.061Z,64.30
2018-09-17T04:04:48.279Z,64.40
2018-09-17T04:08:21.513Z,64.50
2018-09-17T04:11:54.802Z,64.60
2018-09-17T04:15:28.484Z,64.80
2018-09-17T04:19:01.724Z,64.90
2018-09-17T04:22:34.969Z,65.10
2018-09-17T04:26:10.319Z,65.40
2018-09-17T04:29:43.558Z,65.50
2018-09-17T04:33:16.798Z,65.50
2018-09-17T04:36:50.049Z,65.50
2018-09-17T04:40:23.290Z,66.60
2018-09-17T04:43:56.505Z,65.70
2018-09-17T04:47:29.955Z,65.60
2018-09-17T04:51:03.188Z,65.90
2018-09-17T04:54:36.432Z,65.90
2018-09-17T04:58:09.655Z,66.40
2018-09-17T05:01:42.901Z,66.90
2018-09-17T05:05:16.145Z,67.10
2018-09-17T05:08:49.372Z,67.10
2018-09-17T05:12:22.624Z,66.80
2018-09-17T05:15:55.864Z,66.70
2018-09-17T05:19:29.120Z,66.60
2018-09-17T05:23:02.354Z,66.60
2018-09-17T05:26:35.585Z,66.60
2018-09-17T05:30:08.858Z,66.50
2018-09-17T05:33:42.078Z,66.50
2018-09-17T05:37:15.329Z,66.50
2018-09-17T05:40:48.564Z,66.60
2018-09-17T05:44:21.843Z,66.60
2018-09-17T05:47:55.046Z,67.60
2018-09-17T05:51:28.290Z,66.80
2018-09-17T05:55:01.541Z,66.80
2018-09-17T05:58:34.767Z,66.90
2018-09-17T06:02:08.089Z,67.00
2018-09-17T06:05:41.385Z,67.10
2018-09-17T06:09:14.583Z,67.10
2018-09-17T06:12:48.628Z,67.00
2018-09-17T06:16:21.860Z,67.00
2018-09-17T06:19:55.111Z,67.10
2018-09-17T06:23:28.349Z,67.20
2018-09-17T06:27:01.577Z,67.30
2018-09-17T06:30:34.810Z,67.50
2018-09-17T06:34:08.130Z,67.50
2018-09-17T06:37:41.381Z,67.80
2018-09-17T06:41:14.645Z,66.50
2018-09-17T06:44:47.891Z,66.40
2018-09-17T06:48:21.127Z,66.30
2018-09-17T06:51:54.365Z,66.20
2018-09-17T06:55:27.620Z,66.10
2018-09-17T06:59:00.864Z,66.40
2018-09-17T07:02:34.105Z,66.60
2018-09-17T07:06:07.390Z,66.70
2018-09-17T07:09:40.627Z,66.90
2018-09-17T07:13:13.866Z,66.90
2018-09-17T07:16:47.100Z,66.80
2018-09-17T07:20:20.352Z,66.60
2018-09-17T07:23:53.580Z,66.40
2018-09-17T07:27:26.818Z,66.40
2018-09-17T07:31:00.057Z,66.20
2018-09-17T07:34:33.313Z,66.30
2018-09-17T07:38:06.540Z,66.30
2018-09-17T07:41:39.757Z,66.30
2018-09-17T07:45:13.022Z,66.00
2018-09-17T07:48:46.271Z,65.70
2018-09-17T07:52:19.497Z,65.70
2018-09-17T07:55:52.747Z,65.70
2018-09-17T07:59:26.011Z,65.40
2018-09-17T08:02:59.253Z,65.00
2018-09-17T08:06:32.503Z,64.80
2018-09-17T08:10:05.744Z,64.30
2018-09-17T08:13:38.996Z,64.10
2018-09-17T08:17:12.235Z,63.90
2018-09-17T08:20:45.465Z,63.50
2018-09-17T08:24:18.708Z,63.10
2018-09-17T08:27:51.951Z,62.70
2018-09-17T08:31:25.206Z,62.50
2018-09-17T08:34:58.457Z,62.10
2018-09-17T08:38:31.710Z,61.90
2018-09-17T08:42:04.949Z,61.40
2018-09-17T08:45:38.201Z,61.00
2018-09-17T08:49:11.426Z,60.70
2018-09-17T08:52:44.727Z,60.30
2018-09-17T08:56:22.137Z,59.90
2018-09-17T09:00:00.736Z,59.40
2018-09-17T09:03:39.377Z,59.00
2018-09-17T09:08:17.896Z,58.70
2018-09-17T09:12:04.527Z,58.30
2018-09-17T09:15:41.616Z,58.00
2018-09-17T09:19:14.860Z,57.70
2018-09-17T09:22:48.117Z,56.90
2018-09-17T09:26:21.359Z,56.90
2018-09-17T09:29:54.685Z,56.50
2018-09-17T09:33:27.971Z,56.50
2018-09-17T09:37:01.212Z,55.90
2018-09-17T09:40:34.467Z,55.90
2018-09-17T09:44:08.016Z,55.00
2018-09-17T09:47:41.291Z,54.60
2018-09-17T09:51:14.540Z,54.10
2018-09-17T09:54:47.785Z,53.50
2018-09-17T09:58:21.024Z,52.60
2018-09-17T10:01:58.489Z,51.30
2018-09-17T10:05:31.757Z,50.70
2018-09-17T10:09:12.046Z,49.90
2018-09-17T10:12:50.724Z,48.90
2018-09-17T10:16:23.955Z,49.00
2018-09-17T10:19:57.207Z,48.40
2018-09-17T10:23:30.466Z,48.40
2018-09-17T10:27:03.697Z,48.10
2018-09-17T10:30:36.928Z,47.60
2018-09-17T10:34:10.163Z,47.40
2018-09-17T10:37:43.397Z,47.30
2018-09-17T10:41:16.633Z,47.20
2018-09-17T10:44:49.921Z,46.80
2018-09-17T10:48:23.168Z,46.70
2018-09-17T10:51:56.404Z,46.30
2018-09-17T10:55:29.644Z,45.40
2018-09-17T10:59:02.888Z,45.20
2018-09-17T11:02:36.165Z,45.20
2018-09-17T11:06:09.387Z,45.00
2018-09-17T11:09:42.620Z,44.20
2018-09-17T11:13:15.925Z,43.90
2018-09-17T11:16:49.148Z,43.90
2018-09-17T11:20:22.386Z,43.70
2018-09-17T11:23:55.628Z,43.30
2018-09-17T11:27:29.113Z,42.60
2018-09-17T11:31:02.340Z,42.20
2018-09-17T11:34:35.571Z,41.70
2018-09-17T11:38:09.328Z,41.20
2018-09-17T11:41:42.577Z,41.00
2018-09-17T11:45:15.808Z,40.60
2018-09-17T11:48:49.062Z,40.30
2018-09-17T11:52:22.300Z,40.00
2018-09-17T11:55:55.528Z,39.60
2018-09-17T11:59:28.759Z,39.70
2018-09-17T12:03:07.369Z,39.00
2018-09-17T12:06:46.092Z,37.90
2018-09-17T12:10:19.368Z,37.90
2018-09-17T12:13:52.672Z,38.00
2018-09-17T12:17:25.920Z,38.40
2018-09-17T12:20:59.149Z,38.30
2018-09-17T12:24:32.388Z,38.40
2018-09-17T12:28:05.970Z,38.30
2018-09-17T12:31:39.212Z,38.20
2018-09-17T12:35:12.444Z,37.90
2018-09-17T12:38:45.744Z,38.10
2018-09-17T12:42:19.001Z,38.20
2018-09-17T12:45:52.267Z,37.90
2018-09-17T12:49:25.504Z,38.20
2018-09-17T12:52:58.749Z,38.20
2018-09-17T12:56:31.990Z,38.00
2018-09-17T13:00:06.302Z,38.10
2018-09-17T13:03:39.531Z,38.20
2018-09-17T13:07:12.776Z,38.40
2018-09-17T13:10:46.063Z,38.00
2018-09-17T13:14:19.304Z,38.10
2018-09-17T13:17:52.544Z,38.10
2018-09-17T13:21:25.794Z,38.10
2018-09-17T13:24:59.144Z,38.20
2018-09-17T13:28:32.294Z,38.20
2018-09-17T13:32:05.693Z,38.40
2018-09-17T13:35:38.845Z,38.20
2018-09-17T13:39:12.068Z,37.90
2018-09-17T13:42:45.309Z,37.50
2018-09-17T13:46:18.574Z,37.10
2018-09-17T13:49:51.906Z,36.20
2018-09-17T13:53:25.183Z,35.30
2018-09-17T13:56:58.407Z,35.30
2018-09-17T14:00:31.675Z,36.40
2018-09-17T14:04:04.914Z,36.50
2018-09-17T14:07:38.407Z,37.10
2018-09-17T14:11:11.651Z,37.00
2018-09-17T14:14:44.895Z,36.70
2018-09-17T14:18:18.152Z,36.60
2018-09-17T14:21:51.423Z,36.40
2018-09-17T14:25:24.639Z,36.00
2018-09-17T14:28:58.230Z,35.70
2018-09-17T14:32:36.980Z,35.70
2018-09-17T14:36:10.179Z,35.30
2018-09-17T14:39:43.453Z,34.90
2018-09-17T14:43:16.668Z,34.90
2018-09-17T14:46:49.926Z,34.50
2018-09-17T14:50:23.183Z,34.20
2018-09-17T14:53:56.477Z,33.90
2018-09-17T14:57:29.757Z,33.70
2018-09-17T15:01:03.023Z,33.50
2018-09-17T15:04:36.235Z,33.70
2018-09-17T15:08:09.853Z,33.60
2018-09-17T15:11:43.002Z,33.90
2018-09-17T15:15:16.335Z,34.30
2018-09-17T15:18:50.345Z,34.50
2018-09-17T15:22:23.699Z,34.80
2018-09-17T15:25:56.853Z,35.10
2018-09-17T15:29:30.141Z,35.00
2018-09-17T15:33:03.395Z,34.70
2018-09-17T15:36:36.652Z,35.00
2018-09-17T15:40:09.900Z,35.50
2018-09-17T15:43:43.154Z,35.60
2018-09-17T15:47:16.383Z,35.50
2018-09-17T15:50:49.636Z,35.30
2018-09-17T15:54:22.892Z,35.00
2018-09-17T15:57:56.203Z,35.20
2018-09-17T16:01:29.396Z,35.50
2018-09-17T16:05:02.633Z,35.60
2018-09-17T16:08:35.879Z,35.80
2018-09-17T16:12:09.123Z,36.20
2018-09-17T16:15:42.369Z,36.30
2018-09-17T16:19:15.629Z,36.50
2018-09-17T16:22:48.873Z,36.60
2018-09-17T16:26:22.133Z,36.80
2018-09-17T16:29:55.409Z,37.10
2018-09-17T16:33:28.716Z,37.40
2018-09-17T16:37:01.892Z,37.60
2018-09-17T16:40:35.136Z,37.80
2018-09-17T16:44:08.381Z,38.20
2018-09-17T16:47:41.618Z,38.20
2018-09-17T16:51:14.860Z,38.20
2018-09-17T16:54:48.105Z,38.40
2018-09-17T16:58:21.381Z,38.40
2018-09-17T17:01:54.614Z,38.70
2018-09-17T17:05:27.860Z,38.90
2018-09-17T17:09:01.097Z,39.10
2018-09-17T17:12:34.329Z,39.50
2018-09-17T17:16:07.630Z,39.60
2018-09-17T17:19:40.848Z,39.80
2018-09-17T17:23:14.095Z,39.90
2018-09-17T17:26:47.359Z,40.10
2018-09-17T17:30:20.607Z,40.00
2018-09-17T17:33:54.102Z,40.40
2018-09-17T17:37:27.328Z,40.90
2018-09-17T17:41:00.577Z,41.20
2018-09-17T17:44:33.843Z,41.90
2018-09-17T17:48:07.097Z,42.30
2018-09-17T17:51:40.356Z,42.10
2018-09-17T17:55:13.608Z,42.90
2018-09-17T17:58:46.936Z,43.00
2018-09-17T18:02:20.203Z,43.10
2018-09-17T18:05:53.444Z,43.70
2018-09-17T18:09:26.814Z,44.00
2018-09-17T18:12:59.983Z,44.40
2018-09-17T18:16:33.243Z,44.50
2018-09-17T18:20:07.063Z,45.00
2018-09-17T18:23:40.317Z,45.00
2018-09-17T18:27:13.585Z,45.30
2018-09-17T18:30:46.832Z,45.70
2018-09-17T18:34:20.075Z,46.50
2018-09-17T18:37:53.337Z,47.10
2018-09-17T18:41:26.584Z,47.60
2018-09-17T18:44:59.867Z,47.60
2018-09-17T18:48:33.192Z,47.60
2018-09-17T18:52:06.379Z,48.00
2018-09-17T18:55:39.647Z,47.60
2018-09-17T18:59:12.903Z,48.40
2018-09-17T19:02:46.191Z,48.30
2018-09-17T19:06:19.502Z,48.90
2018-09-17T19:09:52.657Z,49.10
2018-09-17T19:13:25.912Z,49.50
2018-09-17T19:16:59.224Z,49.80
2018-09-17T19:20:32.511Z,50.10
2018-09-17T19:24:06.848Z,50.30
2018-09-17T19:27:45.512Z,50.40
2018-09-17T19:31:18.742Z,50.90
2018-09-17T19:34:51.979Z,51.00
2018-09-17T19:38:30.787Z,51.30
2018-09-17T19:42:04.049Z,51.30
2018-09-17T19:45:42.859Z,51.60
2018-09-17T19:49:16.103Z,51.80
2018-09-17T19:52:49.360Z,51.60
2018-09-17T19:56:22.757Z,51.70
2018-09-17T19:59:59.467Z,52.00
2018-09-17T20:03:32.720Z,52.50
2018-09-17T20:07:06.001Z,52.50
2018-09-17T20:10:39.360Z,52.70
2018-09-17T20:14:12.599Z,53.30
2018-09-17T20:17:45.849Z,53.50
2018-09-17T20:21:19.097Z,53.80
2018-09-17T20:24:52.340Z,53.90
2018-09-17T20:28:25.883Z,53.90
2018-09-17T20:31:59.169Z,54.20
2018-09-17T20:35:32.417Z,54.20
2018-09-17T20:39:08.007Z,54.40
2018-09-17T20:42:41.277Z,54.70
2018-09-17T20:46:14.504Z,55.00
2018-09-17T20:49:47.779Z,55.20
2018-09-17T20:53:21.076Z,55.50
2018-09-17T20:56:54.300Z,55.10
2018-09-17T21:00:27.540Z,55.20
2018-09-17T21:04:00.800Z,55.80
2018-09-17T21:07:34.038Z,56.40
2018-09-17T21:11:07.292Z,56.40
2018-09-17T21:14:40.570Z,56.50
2018-09-17T21:18:13.825Z,56.10
2018-09-17T21:21:47.126Z,55.70
2018-09-17T21:25:20.330Z,55.70
2018-09-17T21:28:53.577Z,55.80
2018-09-17T21:32:26.825Z,56.00
2018-09-17T21:36:00.062Z,56.20
2018-09-17T21:39:33.322Z,56.40
2018-09-17T21:43:06.612Z,56.50
2018-09-17T21:46:39.886Z,56.60
2018-09-17T21:50:13.128Z,56.60
2018-09-17T21:53:46.368Z,56.90
2018-09-17T21:57:19.625Z,57.30
2018-09-17T22:00:58.168Z,57.50
2018-09-17T22:04:31.437Z,57.40
2018-09-17T22:08:04.676Z,57.50
2018-09-17T22:11:37.926Z,57.70
2018-09-17T22:15:11.169Z,57.80
2018-09-17T22:18:44.396Z,57.80
2018-09-17T22:22:17.686Z,58.10
2018-09-17T22:25:50.925Z,58.40
2018-09-17T22:29:24.169Z,58.60
2018-09-17T22:32:57.429Z,58.80
2018-09-17T22:36:30.677Z,59.00
2018-09-17T22:40:03.901Z,59.20
2018-09-17T22:43:37.166Z,59.50
2018-09-17T22:47:10.400Z,59.70
2018-09-17T22:50:43.643Z,59.90
2018-09-17T22:54:16.892Z,59.80
2018-09-17T22:57:50.127Z,59.60
2018-09-17T23:01:23.356Z,59.50
2018-09-17T23:04:56.588Z,59.60
2018-09-17T23:08:29.827Z,59.60
2018-09-17T23:12:03.092Z,59.70
2018-09-17T23:15:36.338Z,59.70
2018-09-17T23:19:09.601Z,59.90
2018-09-17T23:22:42.832Z,60.00
2018-09-17T23:26:16.072Z,60.10
2018-09-17T23:29:49.307Z,60.10
2018-09-17T23:33:22.557Z,60.30
2018-09-17T23:36:55.791Z,60.50
2018-09-17T23:40:29.032Z,60.70
2018-09-17T23:44:02.281Z,60.90
2018-09-17T23:47:35.531Z,61.50
2018-09-17T23:51:08.779Z,61.60
2018-09-17T23:54:42.017Z,61.80
2018-09-17T23:58:15.264Z,61.70
